createdAt,value
2023-03-21T00:01:53.513Z,100.00
2023-03-21T00:04:23.274Z,100.00
2023-03-21T00:06:50.632Z,100.00
2023-03-21T00:09:18.432Z,100.00
2023-03-21T00:11:45.777Z,100.00
2023-03-21T00:14:20.189Z,100.00
2023-03-21T00:16:52.174Z,100.00
2023-03-21T00:19:22.018Z,100.00
2023-03-21T00:22:08.768Z,100.00
2023-03-21T00:24:37.238Z,100.00
2023-03-21T00:29:52.203Z,100.00
2023-03-21T00:32:21.490Z,100.00
2023-03-21T00:35:01.391Z,100.00
2023-03-21T00:37:29.424Z,100.00
2023-03-21T00:39:56.457Z,100.00
2023-03-21T00:42:23.932Z,100.00
2023-03-21T00:44:51.234Z,100.00
2023-03-21T00:47:18.293Z,100.00
2023-03-21T00:49:45.925Z,100.00
2023-03-21T00:52:18.713Z,100.00
2023-03-21T00:54:52.224Z,100.00
2023-03-21T00:57:22.047Z,100.00
2023-03-21T00:59:51.288Z,100.00
2023-03-21T01:02:23.077Z,100.00
2023-03-21T01:04:50.550Z,100.00
2023-03-21T01:07:17.553Z,100.00
2023-03-21T01:09:44.657Z,100.00
2023-03-21T01:12:11.749Z,100.00
2023-03-21T01:14:38.978Z,100.00
2023-03-21T01:17:06.241Z,100.00
2023-03-21T01:19:50.207Z,100.00
2023-03-21T01:22:18.112Z,100.00
2023-03-21T01:24:53.881Z,100.00
2023-03-21T01:27:23.964Z,100.00
2023-03-21T01:29:51.685Z,100.00
2023-03-21T01:32:18.733Z,100.00
2023-03-21T01:34:45.800Z,100.00
2023-03-21T01:37:13.023Z,100.00
2023-03-21T01:39:46.172Z,100.00
2023-03-21T01:42:14.674Z,100.00
2023-03-21T01:45:01.839Z,100.00
2023-03-21T01:47:36.953Z,100.00
2023-03-21T01:50:22.167Z,100.00
2023-03-21T01:53:04.070Z,100.00
2023-03-21T01:55:34.136Z,100.00
2023-03-21T01:58:28.245Z,100.00
2023-03-21T02:01:06.911Z,100.00
2023-03-21T02:03:51.204Z,100.00
2023-03-21T02:07:07.832Z,100.00
2023-03-21T02:09:49.002Z,100.00
2023-03-21T02:12:20.339Z,100.00
2023-03-21T02:14:50.176Z,100.00
2023-03-21T02:17:35.621Z,100.00
2023-03-21T02:20:31.320Z,100.00
2023-03-21T02:23:44.980Z,100.00
2023-03-21T02:27:03.661Z,100.00
2023-03-21T02:30:08.690Z,100.00
2023-03-21T02:33:17.796Z,100.00
2023-03-21T02:36:17.707Z,100.00
2023-03-21T02:39:35.444Z,100.00
2023-03-21T02:42:16.037Z,100.00
2023-03-21T02:45:02.754Z,100.00
2023-03-21T02:47:47.536Z,100.00
2023-03-21T02:50:57.275Z,100.00
2023-03-21T02:53:29.644Z,100.00
2023-03-21T02:56:00.155Z,100.00
2023-03-21T02:58:29.538Z,100.00
2023-03-21T03:00:59.068Z,100.00
2023-03-21T03:03:35.155Z,100.00
2023-03-21T03:06:29.529Z,100.00
2023-03-21T03:09:38.734Z,100.00
2023-03-21T03:12:41.118Z,100.00
2023-03-21T03:15:11.579Z,100.00
2023-03-21T03:17:59.584Z,100.00
2023-03-21T03:20:39.213Z,100.00
2023-03-21T03:23:28.282Z,100.00
2023-03-21T03:26:05.707Z,100.00
2023-03-21T03:28:39.824Z,100.00
2023-03-21T03:31:17.653Z,100.00
2023-03-21T03:33:56.685Z,100.00
2023-03-21T03:36:35.749Z,100.00
2023-03-21T03:39:10.078Z,100.00
2023-03-21T03:42:18.457Z,100.00
2023-03-21T03:44:58.814Z,100.00
2023-03-21T03:47:47.756Z,100.00
2023-03-21T03:50:31.941Z,100.00
2023-03-21T03:53:21.925Z,100.00
2023-03-21T03:55:53.437Z,100.00
2023-03-21T03:58:26.043Z,100.00
2023-03-21T04:00:59.354Z,100.00
2023-03-21T04:03:26.618Z,100.00
2023-03-21T04:05:54.254Z,100.00
2023-03-21T04:08:23.253Z,100.00
2023-03-21T04:10:53.688Z,100.00
2023-03-21T04:13:21.863Z,100.00
2023-03-21T04:16:03.758Z,100.00
2023-03-21T04:18:30.988Z,100.00
2023-03-21T04:20:58.985Z,100.00
2023-03-21T04:23:29.960Z,100.00
2023-03-21T04:25:57.578Z,100.00
2023-03-21T04:28:37.079Z,100.00
2023-03-21T04:31:27.218Z,100.00
2023-03-21T04:34:10.190Z,100.00
2023-03-21T04:36:44.494Z,100.00
2023-03-21T04:39:13.083Z,100.00
2023-03-21T04:41:44.223Z,100.00
2023-03-21T04:44:14.479Z,100.00
2023-03-21T04:46:42.592Z,100.00
2023-03-21T04:49:10.981Z,100.00
2023-03-21T04:51:39.165Z,100.00
2023-03-21T04:56:38.124Z,100.00
2023-03-21T04:59:13.106Z,100.00
2023-03-21T05:01:41.366Z,100.00
2023-03-21T05:04:10.391Z,100.00
2023-03-21T05:06:45.190Z,100.00
2023-03-21T05:09:13.547Z,100.00
2023-03-21T05:11:42.815Z,100.00
2023-03-21T05:14:19.092Z,100.00
2023-03-21T05:16:56.143Z,100.00
2023-03-21T05:19:35.240Z,100.00
2023-03-21T05:22:10.938Z,100.00
2023-03-21T05:24:41.657Z,100.00
2023-03-21T05:27:14.216Z,100.00
2023-03-21T05:29:45.226Z,100.00
2023-03-21T05:32:12.685Z,100.00
2023-03-21T05:34:40.253Z,100.00
2023-03-21T05:37:07.699Z,100.00
2023-03-21T05:39:45.284Z,100.00
2023-03-21T05:42:22.887Z,100.00
2023-03-21T05:44:51.197Z,100.00
2023-03-21T05:47:23.198Z,100.00
2023-03-21T05:49:52.516Z,100.00
2023-03-21T05:52:24.148Z,100.00
2023-03-21T05:54:52.337Z,100.00
2023-03-21T05:57:23.407Z,100.00
2023-03-21T06:00:03.668Z,100.00
2023-03-21T06:02:42.551Z,100.00
2023-03-21T06:05:27.136Z,100.00
2023-03-21T06:07:54.307Z,100.00
2023-03-21T06:10:22.228Z,100.00
2023-03-21T06:12:50.610Z,100.00
2023-03-21T06:15:44.344Z,100.00
2023-03-21T06:18:16.317Z,100.00
2023-03-21T06:20:55.119Z,100.00
2023-03-21T06:23:22.820Z,100.00
2023-03-21T06:25:50.708Z,100.00
2023-03-21T06:28:18.239Z,100.00
2023-03-21T06:30:45.640Z,100.00
2023-03-21T06:33:20.918Z,100.00
2023-03-21T06:35:53.182Z,100.00
2023-03-21T06:38:20.860Z,100.00
2023-03-21T06:40:49.251Z,100.00
2023-03-21T06:43:16.940Z,100.00
2023-03-21T06:45:44.923Z,100.00
2023-03-21T06:48:12.985Z,100.00
2023-03-21T06:50:51.477Z,100.00
2023-03-21T06:53:24.289Z,100.00
2023-03-21T06:56:11.843Z,100.00
2023-03-21T06:58:41.162Z,100.00
2023-03-21T07:01:14.791Z,100.00
2023-03-21T07:03:53.684Z,100.00
2023-03-21T07:06:23.401Z,100.00
2023-03-21T07:08:50.835Z,100.00
2023-03-21T07:11:18.458Z,100.00
2023-03-21T07:13:48.678Z,100.00
2023-03-21T07:16:17.482Z,100.00
2023-03-21T07:18:45.364Z,100.00
2023-03-21T07:21:13.078Z,100.00
2023-03-21T07:23:41.422Z,100.00
2023-03-21T07:26:09.052Z,100.00
2023-03-21T07:28:36.836Z,100.00
2023-03-21T07:31:06.965Z,100.00
2023-03-21T07:33:34.587Z,100.00
2023-03-21T07:36:02.740Z,100.00
2023-03-21T07:38:31.133Z,100.00
2023-03-21T07:41:00.707Z,100.00
2023-03-21T07:43:31.482Z,100.00
2023-03-21T07:45:59.917Z,100.00
2023-03-21T07:48:28.404Z,100.00
2023-03-21T07:50:56.155Z,100.00
2023-03-21T07:53:23.706Z,100.00
2023-03-21T07:55:58.067Z,100.00
2023-03-21T07:58:26.663Z,100.00
2023-03-21T08:00:56.541Z,100.00
2023-03-21T08:03:26.209Z,100.00
2023-03-21T08:05:53.690Z,100.00
2023-03-21T08:08:21.203Z,100.00
2023-03-21T08:10:48.753Z,100.00
2023-03-21T08:13:16.179Z,100.00
2023-03-21T08:15:43.679Z,100.00
2023-03-21T08:18:11.497Z,100.00
2023-03-21T08:20:39.986Z,100.00
2023-03-21T08:23:07.023Z,100.00
2023-03-21T08:25:34.498Z,100.00
2023-03-21T08:28:02.046Z,100.00
2023-03-21T08:30:29.774Z,100.00
2023-03-21T08:33:01.189Z,100.00
2023-03-21T08:35:29.519Z,100.00
2023-03-21T08:37:57.338Z,100.00
2023-03-21T08:40:24.760Z,100.00
2023-03-21T08:42:52.370Z,100.00
2023-03-21T08:45:20.321Z,100.00
2023-03-21T08:47:48.044Z,100.00
2023-03-21T08:50:21.270Z,100.00
2023-03-21T08:52:49.288Z,100.00
2023-03-21T08:55:18.823Z,100.00
2023-03-21T08:57:46.533Z,100.00
2023-03-21T09:00:17.145Z,100.00
2023-03-21T09:02:49.600Z,100.00
2023-03-21T09:05:17.200Z,100.00
2023-03-21T09:07:45.423Z,100.00
2023-03-21T09:10:22.223Z,100.00
2023-03-21T09:12:52.293Z,100.00
2023-03-21T09:15:21.589Z,100.00
2023-03-21T09:17:52.784Z,100.00
2023-03-21T09:20:22.634Z,100.00
2023-03-21T09:22:52.134Z,100.00
2023-03-21T09:25:20.632Z,100.00
2023-03-21T09:27:48.323Z,88.57
2023-03-21T09:30:24.719Z,100.00
2023-03-21T09:32:55.531Z,87.96
2023-03-21T09:35:24.305Z,94.62
2023-03-21T09:37:51.844Z,93.12
2023-03-21T09:40:35.358Z,89.09
2023-03-21T09:43:18.422Z,100.00
2023-03-21T09:46:12.595Z,100.00
2023-03-21T09:49:09.794Z,88.14
2023-03-21T09:51:48.705Z,80.43
2023-03-21T09:54:26.965Z,77.30
2023-03-21T09:56:57.427Z,87.72
2023-03-21T09:59:41.366Z,80.46
2023-03-21T10:02:36.785Z,95.67
2023-03-21T10:05:17.714Z,76.89
2023-03-21T10:07:59.989Z,73.87
2023-03-21T10:10:29.623Z,76.66
2023-03-21T10:12:57.121Z,75.88
2023-03-21T10:15:26.736Z,72.25
2023-03-21T10:17:56.862Z,72.39
2023-03-21T10:20:33.636Z,78.28
2023-03-21T10:23:05.426Z,78.55
2023-03-21T10:25:38.692Z,70.45
2023-03-21T10:28:08.323Z,68.98
2023-03-21T10:30:48.238Z,74.69
2023-03-21T10:33:45.900Z,69.12
2023-03-21T10:36:25.782Z,96.64
2023-03-21T10:39:04.282Z,100.00
2023-03-21T10:41:32.513Z,100.00
2023-03-21T10:44:11.834Z,100.00
2023-03-21T10:46:39.683Z,87.22
2023-03-21T10:49:08.593Z,76.59
2023-03-21T10:51:38.412Z,81.51
2023-03-21T10:54:14.359Z,73.60
2023-03-21T10:57:01.107Z,69.68
2023-03-21T10:59:38.028Z,68.06
2023-03-21T11:02:06.944Z,78.42
2023-03-21T11:04:37.032Z,92.38
2023-03-21T11:07:07.459Z,80.71
2023-03-21T11:09:54.902Z,77.95
2023-03-21T11:12:40.761Z,67.38
2023-03-21T11:15:31.087Z,67.89
2023-03-21T11:18:00.387Z,80.69
2023-03-21T11:20:31.707Z,67.32
2023-03-21T11:22:58.724Z,70.26
2023-03-21T11:25:46.365Z,68.97
2023-03-21T11:28:22.749Z,71.10
2023-03-21T11:31:01.667Z,64.90
2023-03-21T11:33:44.498Z,64.09
2023-03-21T11:36:20.824Z,63.69
2023-03-21T11:39:01.727Z,65.28
2023-03-21T11:41:34.600Z,72.40
2023-03-21T11:44:03.337Z,80.11
2023-03-21T11:46:32.627Z,59.54
2023-03-21T11:49:01.570Z,66.64
2023-03-21T11:51:52.570Z,72.03
2023-03-21T11:55:09.028Z,85.84
2023-03-21T11:58:14.249Z,69.03
2023-03-21T12:00:59.538Z,81.37
2023-03-21T12:04:13.337Z,79.93
2023-03-21T12:06:52.929Z,86.14
2023-03-21T12:09:28.338Z,77.43
2023-03-21T12:12:38.001Z,90.48
2023-03-21T12:15:31.771Z,100.00
2023-03-21T12:18:31.811Z,69.16
2023-03-21T12:21:04.238Z,91.58
2023-03-21T12:24:04.206Z,79.66
2023-03-21T12:26:58.112Z,97.82
2023-03-21T12:30:10.247Z,91.71
2023-03-21T12:32:43.570Z,84.62
2023-03-21T12:35:57.223Z,100.00
2023-03-21T12:39:05.083Z,100.00
2023-03-21T12:42:00.262Z,100.00
2023-03-21T12:44:30.349Z,100.00
2023-03-21T12:47:05.096Z,100.00
2023-03-21T12:50:03.656Z,100.00
2023-03-21T12:52:42.375Z,100.00
2023-03-21T12:55:23.986Z,100.00
2023-03-21T12:58:18.851Z,100.00
2023-03-21T13:00:51.898Z,100.00
2023-03-21T13:03:40.152Z,100.00
2023-03-21T13:06:13.417Z,100.00
2023-03-21T13:08:49.717Z,100.00
2023-03-21T13:11:23.590Z,100.00
2023-03-21T13:14:00.651Z,100.00
2023-03-21T13:16:47.927Z,100.00
2023-03-21T13:19:43.069Z,100.00
2023-03-21T13:22:42.455Z,100.00
2023-03-21T13:25:23.326Z,100.00
2023-03-21T13:28:01.176Z,100.00
2023-03-21T13:30:32.353Z,82.94
2023-03-21T13:33:12.382Z,80.24
2023-03-21T13:35:45.449Z,100.00
2023-03-21T13:38:28.714Z,84.10
2023-03-21T13:41:35.938Z,80.99
2023-03-21T13:44:03.230Z,100.00
2023-03-21T13:46:32.698Z,88.93
2023-03-21T13:49:07.603Z,99.90
2023-03-21T13:51:45.038Z,80.56
2023-03-21T13:54:52.265Z,72.06
2023-03-21T13:57:34.180Z,71.88
2023-03-21T14:00:31.310Z,92.56
2023-03-21T14:03:12.319Z,95.66
2023-03-21T14:05:39.936Z,82.37
2023-03-21T14:08:17.255Z,85.87
2023-03-21T14:11:00.752Z,70.09
2023-03-21T14:13:29.811Z,93.29
2023-03-21T14:16:07.620Z,78.24
2023-03-21T14:18:53.903Z,71.99
2023-03-21T14:21:30.208Z,79.39
2023-03-21T14:24:17.739Z,73.52
2023-03-21T14:26:51.139Z,91.95
2023-03-21T14:29:33.805Z,83.43
2023-03-21T14:32:02.536Z,81.79
2023-03-21T14:34:34.099Z,77.62
2023-03-21T14:37:01.531Z,75.19
2023-03-21T14:39:33.421Z,83.57
2023-03-21T14:42:11.456Z,76.36
2023-03-21T14:44:54.962Z,89.08
2023-03-21T14:47:27.320Z,100.00
2023-03-21T14:50:07.207Z,75.82
2023-03-21T14:52:40.495Z,82.34
2023-03-21T14:55:16.375Z,100.00
2023-03-21T14:57:43.794Z,96.37
2023-03-21T15:00:29.967Z,94.50
2023-03-21T15:03:03.172Z,100.00
2023-03-21T15:05:42.441Z,89.37
2023-03-21T15:08:30.463Z,100.00
2023-03-21T15:11:15.501Z,100.00
2023-03-21T15:16:50.808Z,77.94
2023-03-21T15:19:29.139Z,77.55
2023-03-21T15:22:37.652Z,72.96
2023-03-21T15:25:09.384Z,70.04
2023-03-21T15:27:41.926Z,73.19
2023-03-21T15:30:27.903Z,77.58
2023-03-21T15:33:06.524Z,85.82
2023-03-21T15:35:46.037Z,73.38
2023-03-21T15:38:40.967Z,72.08
2023-03-21T15:41:31.575Z,86.82
2023-03-21T15:44:14.545Z,90.39
2023-03-21T15:46:48.493Z,80.27
2023-03-21T15:49:18.885Z,84.20
2023-03-21T15:52:01.982Z,93.16
2023-03-21T15:54:34.527Z,95.66
2023-03-21T15:57:09.473Z,89.75
2023-03-21T15:59:42.041Z,91.92
2023-03-21T16:02:22.460Z,94.92
2023-03-21T16:05:20.277Z,90.16
2023-03-21T16:07:47.947Z,89.61
2023-03-21T16:10:31.669Z,100.00
2023-03-21T16:13:02.631Z,100.00
2023-03-21T16:15:31.119Z,100.00
2023-03-21T16:18:03.794Z,98.35
2023-03-21T16:20:49.097Z,98.68
2023-03-21T16:23:17.440Z,100.00
2023-03-21T16:25:45.755Z,100.00
2023-03-21T16:28:17.415Z,100.00
2023-03-21T16:30:45.642Z,99.14
2023-03-21T16:33:14.035Z,100.00
2023-03-21T16:35:42.097Z,100.00
2023-03-21T16:38:14.000Z,100.00
2023-03-21T16:40:43.436Z,100.00
2023-03-21T16:43:11.607Z,100.00
2023-03-21T16:45:42.201Z,100.00
2023-03-21T16:48:16.471Z,100.00
2023-03-21T16:50:47.988Z,100.00
2023-03-21T16:53:18.844Z,98.52
2023-03-21T16:55:46.057Z,100.00
2023-03-21T16:58:16.365Z,100.00
2023-03-21T17:00:43.773Z,100.00
2023-03-21T17:03:22.099Z,100.00
2023-03-21T17:05:49.236Z,100.00
2023-03-21T17:08:21.882Z,97.39
2023-03-21T17:10:48.913Z,100.00
2023-03-21T17:13:16.202Z,96.07
2023-03-21T17:15:50.744Z,96.36
2023-03-21T17:18:17.875Z,100.00
2023-03-21T17:20:45.494Z,92.71
2023-03-21T17:23:12.488Z,98.29
2023-03-21T17:25:39.492Z,91.42
2023-03-21T17:28:06.499Z,90.00
2023-03-21T17:30:36.668Z,89.98
2023-03-21T17:33:04.337Z,94.02
2023-03-21T17:35:31.750Z,95.16
2023-03-21T17:38:00.769Z,90.49
2023-03-21T17:40:31.445Z,87.66
2023-03-21T17:43:00.950Z,91.68
2023-03-21T17:45:28.359Z,88.71
2023-03-21T17:47:55.560Z,86.05
2023-03-21T17:50:27.736Z,89.10
2023-03-21T17:52:57.802Z,86.40
2023-03-21T17:55:26.196Z,87.28
2023-03-21T17:57:53.743Z,88.32
2023-03-21T18:00:29.298Z,90.82
2023-03-21T18:02:57.274Z,97.92
2023-03-21T18:05:25.406Z,100.00
2023-03-21T18:08:09.763Z,100.00
2023-03-21T18:10:38.085Z,100.00
2023-03-21T18:13:06.100Z,100.00
2023-03-21T18:15:33.735Z,100.00
2023-03-21T18:18:00.818Z,100.00
2023-03-21T18:20:49.827Z,100.00
2023-03-21T18:23:19.164Z,100.00
2023-03-21T18:25:47.274Z,100.00
2023-03-21T18:28:19.173Z,100.00
2023-03-21T18:33:40.793Z,100.00
2023-03-21T18:36:09.812Z,100.00
2023-03-21T18:38:37.278Z,100.00
2023-03-21T18:41:06.437Z,100.00
2023-03-21T18:44:00.756Z,100.00
2023-03-21T18:46:21.982Z,100.00
2023-03-21T18:48:49.658Z,100.00
2023-03-21T18:51:23.051Z,100.00
2023-03-21T18:57:36.877Z,100.00
2023-03-21T19:00:13.348Z,100.00
2023-03-21T19:02:48.054Z,100.00
2023-03-21T19:05:18.846Z,100.00
2023-03-21T19:07:48.008Z,100.00
2023-03-21T19:10:22.850Z,100.00
2023-03-21T19:13:26.100Z,100.00
2023-03-21T19:15:56.110Z,100.00
2023-03-21T19:18:53.030Z,100.00
2023-03-21T19:21:28.685Z,100.00
2023-03-21T19:26:52.764Z,100.00
2023-03-21T19:29:20.617Z,100.00
2023-03-21T19:31:51.079Z,100.00
2023-03-21T19:34:21.295Z,100.00
2023-03-21T19:36:51.848Z,100.00
2023-03-21T19:39:22.533Z,100.00
2023-03-21T19:42:16.061Z,100.00
2023-03-21T19:45:10.319Z,100.00
2023-03-21T19:47:37.690Z,100.00
2023-03-21T19:52:54.320Z,100.00
2023-03-21T19:55:27.360Z,100.00
2023-03-21T19:57:55.062Z,100.00
2023-03-21T20:00:25.662Z,100.00
2023-03-21T20:02:53.119Z,100.00
2023-03-21T20:05:22.003Z,100.00
2023-03-21T20:07:50.087Z,100.00
2023-03-21T20:10:46.237Z,100.00
2023-03-21T20:13:38.716Z,100.00
2023-03-21T20:16:11.123Z,100.00
2023-03-21T20:18:39.873Z,100.00
2023-03-21T20:21:17.025Z,100.00
2023-03-21T20:23:49.290Z,100.00
2023-03-21T20:26:20.560Z,100.00
2023-03-21T20:29:27.870Z,100.00
2023-03-21T20:31:45.470Z,100.00
2023-03-21T20:34:13.160Z,100.00
2023-03-21T20:36:43.355Z,100.00
2023-03-21T20:39:11.680Z,100.00
2023-03-21T20:41:39.476Z,100.00
2023-03-21T20:44:39.512Z,100.00
2023-03-21T20:46:56.653Z,100.00
2023-03-21T20:49:24.916Z,100.00
2023-03-21T20:54:42.460Z,100.00
2023-03-21T20:57:10.209Z,100.00
2023-03-21T20:59:40.765Z,100.00
2023-03-21T21:02:10.150Z,100.00
2023-03-21T21:04:55.792Z,100.00
2023-03-21T21:07:27.518Z,100.00
2023-03-21T21:09:55.060Z,100.00
2023-03-21T21:12:28.765Z,100.00
2023-03-21T21:14:56.751Z,100.00
2023-03-21T21:17:54.093Z,100.00
2023-03-21T21:20:16.927Z,100.00
2023-03-21T21:22:59.424Z,100.00
2023-03-21T21:25:29.036Z,100.00
2023-03-21T21:27:56.807Z,100.00
2023-03-21T21:30:25.082Z,100.00
2023-03-21T21:32:52.594Z,100.00
2023-03-21T21:35:22.402Z,100.00
2023-03-21T21:37:52.281Z,100.00
2023-03-21T21:40:25.785Z,100.00
2023-03-21T21:42:53.734Z,100.00
2023-03-21T21:45:21.449Z,100.00
2023-03-21T21:47:49.159Z,100.00
2023-03-21T21:50:20.927Z,100.00
2023-03-21T21:52:52.911Z,100.00
2023-03-21T21:55:21.893Z,100.00
2023-03-21T21:57:52.982Z,100.00
2023-03-21T22:00:20.767Z,100.00
2023-03-21T22:02:51.412Z,100.00
2023-03-21T22:05:20.981Z,100.00
2023-03-21T22:07:49.398Z,100.00
2023-03-21T22:10:16.849Z,100.00
2023-03-21T22:12:44.394Z,100.00
2023-03-21T22:15:12.431Z,100.00
2023-03-21T22:17:41.049Z,100.00
2023-03-21T22:20:09.911Z,100.00
2023-03-21T22:22:37.811Z,100.00
2023-03-21T22:25:10.916Z,100.00
2023-03-21T22:27:41.448Z,100.00
2023-03-21T22:30:13.763Z,100.00
2023-03-21T22:32:41.708Z,100.00
2023-03-21T22:35:09.677Z,100.00
2023-03-21T22:37:40.855Z,100.00
2023-03-21T22:40:11.813Z,100.00
2023-03-21T22:42:39.751Z,100.00
2023-03-21T22:45:09.488Z,100.00
2023-03-21T22:47:37.688Z,100.00
2023-03-21T22:50:07.468Z,100.00
2023-03-21T22:52:37.212Z,100.00
2023-03-21T22:55:05.098Z,100.00
2023-03-21T22:57:32.511Z,100.00
2023-03-21T22:59:59.876Z,100.00
2023-03-21T23:02:27.537Z,100.00
2023-03-21T23:04:55.842Z,100.00
2023-03-21T23:07:23.358Z,100.00
2023-03-21T23:09:50.919Z,100.00
2023-03-21T23:12:18.275Z,100.00
2023-03-21T23:14:45.756Z,100.00
2023-03-21T23:17:13.171Z,100.00
2023-03-21T23:19:41.240Z,100.00
2023-03-21T23:22:08.998Z,100.00
2023-03-21T23:24:36.481Z,100.00
2023-03-21T23:27:03.841Z,100.00
2023-03-21T23:29:31.190Z,100.00
2023-03-21T23:31:58.621Z,100.00
2023-03-21T23:34:27.636Z,100.00
2023-03-21T23:36:54.958Z,100.00
2023-03-21T23:39:22.762Z,100.00
2023-03-21T23:41:50.247Z,100.00
2023-03-21T23:44:17.638Z,100.00
2023-03-21T23:46:45.067Z,100.00
2023-03-21T23:49:12.443Z,100.00
2023-03-21T23:51:39.825Z,100.00
2023-03-21T23:54:07.287Z,100.00
2023-03-21T23:56:34.725Z,100.00
2023-03-21T23:59:04.454Z,100.00
